Parachute, CO (81635)

4:41 PM MDT on August 24, 2016 (GMT -0600)
Garfield County Regional | | Change Station

Elev 5541 ft 39.52 °N, 107.73 °W | Updated 10 minutes ago

Mostly Cloudy
Mostly Cloudy
74 °F
Feels Like 74 °F
N
18
Wind Variable Wind from South
Gusts 25 mph

Today
High -- | Low -- °F
--% Chance of Precip.
Yesterday
High -- | Low -- °F
Precip. -- in
Pressure 30.13 in
Visibility 10.0 miles
Clouds Few 8000 ft
Mostly Cloudy 10000 ft
Dew Point 38 °F
Humidity 27%
Rainfall 0.03 in
Snow Depth Not available.
6:33 AM 7:54 PM
Waning Gibbous, 52% visible
SPECI KRIL 242231Z AUTO 17016G22KT 10SM FEW080 BKN100 23/03 A3013 RMK AO2 PK WND 20040/2214 WSHFT 2211 RAB13E29 P0000 T02330033
Pressure 30.13 in
Visibility 10.0 miles
Clouds Few 8000 ft
Mostly Cloudy 10000 ft
Dew Point 38 °F
Humidity 27%
Rainfall 0.03 in
Snow Depth Not available.
6:33 AM 7:54 PM
Waning Gibbous, 52% visible
SPECI KRIL 242231Z AUTO 17016G22KT 10SM FEW080 BKN100 23/03 A3013 RMK AO2 PK WND 20040/2214 WSHFT 2211 RAB13E29 P0000 T02330033

10-Day Weather Forecast

Almanac

Astronomy

Aug. 24, 2016 Rise Set
Actual Time
Civil Twilight
Nautical Twilight
Astronomical Twilight
Moon
Length of Visible Light
Length of Day
Tomorrow will be .
, % of the Moon is Illuminated

Today's Extremes

State Highs State Lows

Community

WunderPhotos

Upload Photos

1,934,728 photos uploaded!

WunderBlog® & News

Nearby

Air Quality

  Air Quality AQ Index Pollutant
Not available.

Snow Depth

Station Depth Elevation

Earthquake Activity

City Distance Mag. Time & Date
Minimum magnitude displayed is 2.5.

Coastal Water Temperatures

Place Temperature

Stations

Nearby Weather Stations

Station Location Temp. Windchill Dew Point Humidity Wind Precip. Elev Updated Type
                   

Watches & Warnings

There are currently no watches in effect.